createdAt,value
2018-12-12T00:01:57.515Z,72.28
2018-12-12T00:04:31.256Z,72.49
2018-12-12T00:07:20.379Z,72.03
2018-12-12T00:09:53.195Z,72.66
2018-12-12T00:12:24.998Z,73.41
2018-12-12T00:14:57.861Z,73.15
2018-12-12T00:17:29.877Z,73.09
2018-12-12T00:20:03.900Z,72.71
2018-12-12T00:22:35.832Z,71.70
2018-12-12T00:25:07.757Z,71.70
2018-12-12T00:27:39.515Z,71.36
2018-12-12T00:30:11.441Z,71.35
2018-12-12T00:32:43.305Z,72.05
2018-12-12T00:35:15.165Z,71.69
2018-12-12T00:37:47.953Z,72.23
2018-12-12T00:40:19.774Z,71.93
2018-12-12T00:42:51.824Z,71.84
2018-12-12T00:45:24.170Z,71.98
2018-12-12T00:47:55.892Z,71.82
2018-12-12T00:50:27.850Z,72.03
2018-12-12T00:52:59.689Z,72.69
2018-12-12T00:55:31.475Z,72.18
2018-12-12T00:58:03.049Z,72.67
2018-12-12T01:00:34.711Z,72.01
2018-12-12T01:03:06.673Z,72.44
2018-12-12T01:05:38.591Z,72.25
2018-12-12T01:08:10.653Z,73.17
2018-12-12T01:10:42.699Z,73.38
2018-12-12T01:13:14.860Z,74.45
2018-12-12T01:15:46.811Z,75.10
2018-12-12T01:18:18.873Z,75.87
2018-12-12T01:20:50.957Z,76.75
2018-12-12T01:23:22.651Z,77.18
2018-12-12T01:25:54.394Z,77.43
2018-12-12T01:28:26.096Z,78.03
2018-12-12T01:30:58.054Z,78.20
2018-12-12T01:33:29.994Z,78.89
2018-12-12T01:36:01.807Z,78.59
2018-12-12T01:38:33.559Z,79.33
2018-12-12T01:41:05.331Z,79.39
2018-12-12T01:43:36.919Z,79.32
2018-12-12T01:46:09.185Z,79.23
2018-12-12T01:48:41.133Z,76.51
2018-12-12T01:51:12.879Z,73.54
2018-12-12T01:53:47.169Z,72.83
2018-12-12T01:56:19.088Z,73.39
2018-12-12T01:58:50.693Z,72.74
2018-12-12T02:01:22.388Z,73.56
2018-12-12T02:03:54.155Z,73.14
2018-12-12T02:06:26.089Z,74.74
2018-12-12T02:08:58.034Z,74.52
2018-12-12T02:11:29.899Z,74.83
2018-12-12T02:14:01.516Z,74.37
2018-12-12T02:16:33.962Z,74.60
2018-12-12T02:19:06.147Z,74.59
2018-12-12T02:21:37.795Z,74.86
2018-12-12T02:24:09.647Z,75.33
2018-12-12T02:26:41.514Z,75.34
2018-12-12T02:29:12.978Z,74.72
2018-12-12T02:31:44.976Z,75.38
2018-12-12T02:34:16.880Z,75.16
2018-12-12T02:36:48.798Z,75.36
2018-12-12T02:39:20.534Z,75.46
2018-12-12T02:41:52.299Z,76.38
2018-12-12T02:44:24.465Z,76.00
2018-12-12T02:46:57.245Z,75.32
2018-12-12T02:49:29.107Z,75.21
2018-12-12T02:52:01.315Z,75.29
2018-12-12T02:54:33.223Z,76.08
2018-12-12T02:57:04.953Z,76.46
2018-12-12T02:59:36.766Z,75.80
2018-12-12T03:02:08.558Z,75.45
2018-12-12T03:04:42.267Z,75.74
2018-12-12T03:07:14.371Z,76.34
2018-12-12T03:09:46.273Z,75.88
2018-12-12T03:12:18.173Z,76.54
2018-12-12T03:14:49.731Z,76.52
2018-12-12T03:17:22.382Z,75.76
2018-12-12T03:19:54.193Z,76.38
2018-12-12T03:22:26.042Z,75.95
2018-12-12T03:24:57.717Z,77.21
2018-12-12T03:27:29.552Z,76.54
2018-12-12T03:30:01.256Z,76.96
2018-12-12T03:32:33.267Z,77.08
2018-12-12T03:35:05.320Z,76.84
2018-12-12T03:37:39.341Z,77.18
2018-12-12T03:40:12.864Z,76.72
2018-12-12T03:42:45.041Z,76.91
2018-12-12T03:45:17.018Z,76.59
2018-12-12T03:47:49.216Z,77.60
2018-12-12T03:50:20.873Z,77.61
2018-12-12T03:52:52.535Z,77.57
2018-12-12T03:55:24.576Z,77.33
2018-12-12T03:57:56.003Z,77.95
2018-12-12T04:00:28.866Z,77.17
2018-12-12T04:03:01.021Z,76.85
2018-12-12T04:05:33.101Z,77.72
2018-12-12T04:08:07.256Z,77.06
2018-12-12T04:10:40.313Z,76.43
2018-12-12T04:13:12.888Z,76.10
2018-12-12T04:15:45.497Z,74.89
2018-12-12T04:18:19.849Z,74.95
2018-12-12T04:20:52.978Z,75.25
2018-12-12T04:23:24.713Z,74.90
2018-12-12T04:25:56.834Z,74.70
2018-12-12T04:28:29.488Z,74.71
2018-12-12T04:31:01.503Z,74.17
2018-12-12T04:33:33.251Z,74.47
2018-12-12T04:36:05.092Z,74.53
2018-12-12T04:38:36.871Z,74.49
2018-12-12T04:41:09.012Z,74.09
2018-12-12T04:43:40.588Z,75.00
2018-12-12T04:46:12.578Z,74.75
2018-12-12T04:48:44.711Z,74.55
2018-12-12T04:51:16.620Z,74.93
2018-12-12T04:53:48.712Z,74.83
2018-12-12T04:56:20.751Z,74.60
2018-12-12T04:58:53.426Z,74.48
2018-12-12T05:01:25.812Z,74.04
2018-12-12T05:03:57.524Z,74.10
2018-12-12T05:06:29.006Z,73.53
2018-12-12T05:09:00.803Z,73.61
2018-12-12T05:11:34.517Z,73.14
2018-12-12T05:14:07.177Z,73.51
2018-12-12T05:16:39.075Z,73.23
2018-12-12T05:19:11.473Z,73.38
2018-12-12T05:21:43.518Z,73.45
2018-12-12T05:24:15.393Z,73.09
2018-12-12T05:26:47.071Z,73.42
2018-12-12T05:29:19.031Z,72.76
2018-12-12T05:31:51.414Z,72.75
2018-12-12T05:34:23.273Z,72.94
2018-12-12T05:36:57.770Z,73.19
2018-12-12T05:39:29.460Z,73.17
2018-12-12T05:42:01.459Z,72.86
2018-12-12T05:44:33.130Z,72.89
2018-12-12T05:47:04.928Z,72.45
2018-12-12T05:49:38.706Z,72.91
2018-12-12T05:52:10.414Z,72.80
2018-12-12T05:54:42.267Z,72.47
2018-12-12T05:57:13.981Z,72.27
2018-12-12T05:59:45.785Z,72.61
2018-12-12T06:02:17.742Z,72.64
2018-12-12T06:04:49.519Z,72.60
2018-12-12T06:07:21.291Z,72.82
2018-12-12T06:09:53.111Z,73.24
2018-12-12T06:12:25.039Z,72.91
2018-12-12T06:14:56.851Z,73.08
2018-12-12T06:17:29.800Z,73.29
2018-12-12T06:20:02.072Z,72.98
2018-12-12T06:22:37.695Z,73.45
2018-12-12T06:25:07.889Z,74.52
2018-12-12T06:27:39.564Z,74.32
2018-12-12T06:30:11.983Z,74.52
2018-12-12T06:32:44.960Z,74.90
2018-12-12T06:35:16.756Z,74.50
2018-12-12T06:37:48.723Z,75.79
2018-12-12T06:40:21.513Z,76.37
2018-12-12T06:42:53.962Z,76.17
2018-12-12T06:45:25.920Z,75.21
2018-12-12T06:47:57.792Z,76.54
2018-12-12T06:50:30.953Z,76.92
2018-12-12T06:53:02.845Z,76.68
2018-12-12T06:55:35.304Z,77.75
2018-12-12T06:58:07.117Z,75.62
2018-12-12T07:00:38.924Z,75.64
2018-12-12T07:03:10.814Z,77.03
2018-12-12T07:05:42.477Z,75.67
2018-12-12T07:08:14.845Z,75.25
2018-12-12T07:10:46.782Z,75.87
2018-12-12T07:13:18.643Z,76.23
2018-12-12T07:15:51.277Z,75.84
2018-12-12T07:18:23.399Z,76.68
2018-12-12T07:20:55.506Z,76.40
2018-12-12T07:23:27.331Z,76.14
2018-12-12T07:25:58.898Z,76.45
2018-12-12T07:28:30.736Z,75.90
2018-12-12T07:31:02.560Z,75.98
2018-12-12T07:33:35.546Z,76.16
2018-12-12T07:36:07.386Z,76.47
2018-12-12T07:38:38.898Z,76.03
2018-12-12T07:41:11.825Z,75.64
2018-12-12T07:43:46.145Z,76.09
2018-12-12T07:46:24.044Z,75.41
2018-12-12T07:48:58.025Z,75.60
2018-12-12T07:51:50.352Z,75.18
2018-12-12T07:54:22.294Z,74.56
2018-12-12T07:56:54.041Z,74.81
2018-12-12T07:59:26.281Z,74.08
2018-12-12T08:01:57.858Z,73.64
2018-12-12T08:04:29.641Z,73.95
2018-12-12T08:07:01.210Z,74.58
2018-12-12T08:09:34.041Z,74.59
2018-12-12T08:12:05.698Z,75.18
2018-12-12T08:14:38.657Z,74.43
2018-12-12T08:17:10.896Z,74.41
2018-12-12T08:19:42.908Z,74.37
2018-12-12T08:22:15.420Z,74.64
2018-12-12T08:24:47.273Z,73.54
2018-12-12T08:27:19.030Z,73.83
2018-12-12T08:29:50.798Z,73.22
2018-12-12T08:32:22.551Z,73.55
2018-12-12T08:34:54.560Z,73.57
2018-12-12T08:37:26.390Z,72.53
2018-12-12T08:39:58.040Z,71.37
2018-12-12T08:42:30.109Z,71.34
2018-12-12T08:45:02.244Z,70.90
2018-12-12T08:47:34.741Z,71.36
2018-12-12T08:50:07.445Z,69.97
2018-12-12T08:52:39.596Z,69.87
2018-12-12T08:55:17.432Z,68.26
2018-12-12T08:57:45.365Z,68.97
2018-12-12T09:00:17.121Z,68.15
2018-12-12T09:02:48.948Z,68.83
2018-12-12T09:05:20.869Z,69.69
2018-12-12T09:07:52.677Z,68.98
2018-12-12T09:10:24.590Z,68.65
2018-12-12T09:12:56.539Z,68.21
2018-12-12T09:15:28.332Z,68.65
2018-12-12T09:17:59.988Z,68.12
2018-12-12T09:20:31.857Z,67.95
2018-12-12T09:23:04.281Z,68.29
2018-12-12T09:25:36.054Z,68.49
2018-12-12T09:28:09.146Z,68.49
2018-12-12T09:30:43.205Z,68.54
2018-12-12T09:33:17.060Z,67.71
2018-12-12T09:35:54.407Z,67.51
2018-12-12T09:38:26.615Z,68.35
2018-12-12T09:40:58.936Z,68.34
2018-12-12T09:43:30.878Z,67.74
2018-12-12T09:46:03.050Z,66.53
2018-12-12T09:48:34.669Z,66.15
2018-12-12T09:51:07.521Z,66.03
2018-12-12T09:53:42.126Z,66.55
2018-12-12T09:56:13.952Z,65.27
2018-12-12T09:58:46.433Z,65.42
2018-12-12T10:01:18.500Z,65.62
2018-12-12T10:03:50.386Z,66.09
2018-12-12T10:06:22.049Z,66.19
2018-12-12T10:08:53.767Z,66.92
2018-12-12T10:11:25.495Z,67.31
2018-12-12T10:14:00.323Z,67.22
2018-12-12T10:16:33.642Z,67.30
2018-12-12T10:19:10.945Z,68.13
2018-12-12T10:21:46.487Z,68.37
2018-12-12T10:24:19.223Z,68.70
2018-12-12T10:26:51.174Z,68.27
2018-12-12T10:29:22.962Z,69.38
2018-12-12T10:31:55.379Z,68.84
2018-12-12T10:34:27.243Z,68.49
2018-12-12T10:36:59.669Z,68.70
2018-12-12T10:39:31.710Z,69.43
2018-12-12T10:42:03.603Z,68.56
2018-12-12T10:44:35.513Z,69.60
2018-12-12T10:47:07.232Z,69.43
2018-12-12T10:49:39.868Z,68.93
2018-12-12T10:52:12.039Z,69.04
2018-12-12T10:54:44.167Z,69.11
2018-12-12T10:57:16.085Z,69.09
2018-12-12T10:59:48.152Z,69.05
2018-12-12T11:02:24.564Z,69.30
2018-12-12T11:04:56.400Z,68.89
2018-12-12T11:07:28.522Z,69.81
2018-12-12T11:10:01.195Z,69.40
2018-12-12T11:12:35.903Z,69.16
2018-12-12T11:15:07.711Z,70.00
2018-12-12T11:17:39.737Z,69.61
2018-12-12T11:20:12.325Z,69.89
2018-12-12T11:22:44.224Z,70.08
2018-12-12T11:25:16.421Z,69.88
2018-12-12T11:27:48.785Z,69.92
2018-12-12T11:30:20.734Z,69.69
2018-12-12T11:32:52.651Z,70.06
2018-12-12T11:35:25.436Z,70.03
2018-12-12T11:37:58.268Z,70.48
2018-12-12T11:40:30.175Z,70.55
2018-12-12T11:43:01.959Z,70.31
2018-12-12T11:45:33.638Z,70.57
2018-12-12T11:48:06.564Z,70.48
2018-12-12T11:50:38.254Z,70.82
2018-12-12T11:53:09.964Z,70.27
2018-12-12T11:55:42.225Z,71.03
2018-12-12T11:58:14.275Z,70.69
2018-12-12T12:00:46.232Z,70.51
2018-12-12T12:03:17.884Z,70.36
2018-12-12T12:05:51.012Z,70.76
2018-12-12T12:08:22.912Z,70.78
2018-12-12T12:10:54.747Z,71.35
2018-12-12T12:13:28.835Z,71.55
2018-12-12T12:16:00.509Z,71.38
2018-12-12T12:18:32.278Z,71.72
2018-12-12T12:21:04.192Z,71.80
2018-12-12T12:23:36.164Z,71.74
2018-12-12T12:26:09.515Z,72.08
2018-12-12T12:28:41.208Z,72.05
2018-12-12T12:31:12.873Z,71.52
2018-12-12T12:33:45.012Z,70.92
2018-12-12T12:36:16.758Z,71.40
2018-12-12T12:38:48.839Z,71.54
2018-12-12T12:41:20.657Z,71.31
2018-12-12T12:43:52.677Z,71.58
2018-12-12T12:46:27.164Z,71.05
2018-12-12T12:48:59.279Z,70.83
2018-12-12T12:51:31.160Z,71.51
2018-12-12T12:54:02.924Z,71.08
2018-12-12T12:56:35.420Z,71.73
2018-12-12T12:59:06.944Z,71.47
2018-12-12T13:01:38.881Z,71.46
2018-12-12T13:04:10.343Z,71.62
2018-12-12T13:06:42.517Z,71.28
2018-12-12T13:09:14.304Z,71.15
2018-12-12T13:11:46.248Z,71.55
2018-12-12T13:14:18.264Z,71.44
2018-12-12T13:16:50.448Z,71.76
2018-12-12T13:19:22.439Z,71.30
2018-12-12T13:21:53.849Z,71.58
2018-12-12T13:24:25.708Z,71.56
2018-12-12T13:26:57.939Z,71.88
2018-12-12T13:29:29.919Z,71.42
2018-12-12T13:32:01.566Z,71.37
2018-12-12T13:34:33.644Z,71.85
2018-12-12T13:37:05.659Z,71.82
2018-12-12T13:39:37.287Z,71.66
2018-12-12T13:42:09.277Z,71.97
2018-12-12T13:44:41.101Z,73.97
2018-12-12T13:47:17.326Z,73.21
2018-12-12T13:49:47.221Z,73.13
2018-12-12T13:52:19.218Z,73.35
2018-12-12T13:54:51.336Z,74.62
2018-12-12T13:57:23.800Z,74.12
2018-12-12T13:59:55.582Z,74.03
2018-12-12T14:02:29.345Z,74.03
2018-12-12T14:05:01.597Z,74.33
2018-12-12T14:07:34.222Z,74.37
2018-12-12T14:10:06.207Z,74.94
2018-12-12T14:12:38.068Z,74.87
2018-12-12T14:15:09.733Z,75.43
2018-12-12T14:17:41.583Z,75.28
2018-12-12T14:20:13.543Z,75.48
2018-12-12T14:22:46.635Z,75.35
2018-12-12T14:25:18.492Z,76.18
2018-12-12T14:27:50.937Z,75.09
2018-12-12T14:30:25.084Z,74.58
2018-12-12T14:32:57.056Z,75.21
2018-12-12T14:35:30.106Z,75.77
2018-12-12T14:38:02.162Z,75.65
2018-12-12T14:40:34.495Z,75.79
2018-12-12T14:43:06.399Z,75.84
2018-12-12T14:45:39.268Z,76.29
2018-12-12T14:48:11.443Z,76.46
2018-12-12T14:50:43.326Z,76.92
2018-12-12T14:53:15.089Z,76.80
2018-12-12T14:55:46.912Z,76.08
2018-12-12T14:58:19.585Z,76.36
2018-12-12T15:00:51.725Z,76.50
2018-12-12T15:03:28.431Z,77.15
2018-12-12T15:06:00.171Z,77.15
2018-12-12T15:08:33.230Z,76.65
2018-12-12T15:11:05.289Z,76.63
2018-12-12T15:13:37.124Z,76.66
2018-12-12T15:16:09.039Z,76.68
2018-12-12T15:18:40.806Z,76.97
2018-12-12T15:21:14.881Z,76.53
2018-12-12T15:23:47.905Z,77.08
2018-12-12T15:26:19.867Z,77.13
2018-12-12T15:28:52.688Z,77.19
2018-12-12T15:31:24.678Z,77.01
2018-12-12T15:33:57.047Z,76.58
2018-12-12T15:36:28.975Z,77.13
2018-12-12T15:39:01.209Z,76.79
2018-12-12T15:41:36.049Z,76.64
2018-12-12T15:44:08.138Z,76.63
2018-12-12T15:46:39.918Z,76.37
2018-12-12T15:49:42.399Z,76.85
2018-12-12T16:05:59.900Z,77.79
2018-12-12T16:08:32.124Z,77.19
2018-12-12T16:13:46.478Z,77.56
2018-12-12T16:16:18.680Z,77.38
2018-12-12T16:18:50.806Z,77.30
2018-12-12T16:21:22.836Z,77.78
2018-12-12T16:23:54.738Z,77.76
2018-12-12T16:26:27.069Z,77.71
2018-12-12T16:28:59.320Z,77.46
2018-12-12T16:31:31.250Z,76.87
2018-12-12T16:34:03.276Z,77.05
2018-12-12T16:36:35.070Z,77.48
2018-12-12T16:39:09.175Z,78.04
2018-12-12T16:41:41.329Z,77.91
2018-12-12T16:44:13.165Z,78.11
2018-12-12T16:46:51.305Z,78.57
2018-12-12T16:49:23.124Z,77.91
2018-12-12T16:51:54.902Z,78.26
2018-12-12T16:54:27.279Z,78.08
2018-12-12T16:56:58.895Z,78.55
2018-12-12T16:59:36.426Z,77.98
2018-12-12T17:02:08.240Z,78.35
2018-12-12T17:04:39.953Z,78.67
2018-12-12T17:07:12.729Z,78.29
2018-12-12T17:09:44.946Z,78.97
2018-12-12T17:12:16.423Z,79.15
2018-12-12T17:14:48.243Z,78.68
2018-12-12T17:17:20.172Z,79.20
2018-12-12T17:19:52.016Z,79.35
2018-12-12T17:22:24.014Z,78.92
2018-12-12T17:24:56.044Z,79.15
2018-12-12T17:27:27.799Z,79.38
2018-12-12T17:29:59.804Z,78.62
2018-12-12T17:32:32.918Z,79.74
2018-12-12T17:35:08.810Z,79.38
2018-12-12T17:37:38.797Z,78.90
2018-12-12T17:40:11.220Z,78.69
2018-12-12T17:42:42.985Z,79.42
2018-12-12T17:45:14.892Z,78.88
2018-12-12T17:47:48.025Z,78.84
2018-12-12T17:50:21.201Z,79.33
2018-12-12T17:52:53.253Z,79.57
2018-12-12T17:55:25.516Z,78.81
2018-12-12T17:57:58.266Z,79.32
2018-12-12T18:00:30.282Z,79.56
2018-12-12T18:03:04.496Z,79.56
2018-12-12T18:05:57.146Z,79.79
2018-12-12T18:08:29.084Z,79.57
2018-12-12T18:11:01.510Z,79.10
2018-12-12T18:13:35.702Z,79.09
2018-12-12T18:16:09.625Z,79.07
2018-12-12T18:18:42.780Z,79.22
2018-12-12T18:21:14.651Z,79.37
2018-12-12T18:23:50.025Z,79.07
2018-12-12T18:26:22.156Z,79.95
2018-12-12T18:28:54.500Z,79.73
2018-12-12T18:31:30.918Z,79.85
2018-12-12T18:34:20.483Z,79.62
2018-12-12T18:36:52.522Z,79.64
2018-12-12T18:39:24.215Z,79.63
2018-12-12T18:41:56.324Z,79.86
2018-12-12T18:44:34.305Z,80.03
2018-12-12T18:47:06.112Z,80.24
2018-12-12T18:49:43.589Z,80.23
2018-12-12T18:52:17.473Z,79.68
2018-12-12T18:54:49.140Z,79.67
2018-12-12T18:57:23.010Z,79.35
2018-12-12T18:59:54.687Z,79.17
2018-12-12T19:02:26.302Z,80.03
2018-12-12T19:04:58.299Z,79.83
2018-12-12T19:07:29.907Z,80.24
2018-12-12T19:10:03.351Z,79.92
2018-12-12T19:12:35.735Z,80.19
2018-12-12T19:15:09.358Z,79.80
2018-12-12T19:17:41.336Z,80.50
2018-12-12T19:20:13.472Z,80.36
2018-12-12T19:22:45.514Z,80.03
2018-12-12T19:25:17.587Z,80.29
2018-12-12T19:27:49.273Z,80.64
2018-12-12T19:30:21.470Z,80.18
2018-12-12T19:32:54.378Z,80.73
2018-12-12T19:35:26.119Z,80.79
2018-12-12T19:37:58.977Z,80.40
2018-12-12T19:40:30.975Z,81.03
2018-12-12T19:43:04.347Z,80.90
2018-12-12T19:45:37.245Z,80.61
2018-12-12T19:48:08.922Z,81.49
2018-12-12T19:50:41.068Z,81.18
2018-12-12T19:53:14.168Z,80.81
2018-12-12T19:55:46.329Z,81.03
2018-12-12T19:58:18.144Z,80.76
2018-12-12T20:00:49.762Z,80.86
2018-12-12T20:03:22.044Z,80.82
2018-12-12T20:05:54.787Z,81.04
2018-12-12T20:08:26.717Z,80.77
2018-12-12T20:10:58.870Z,80.53
2018-12-12T20:13:30.982Z,80.31
2018-12-12T20:16:02.954Z,81.17
2018-12-12T20:18:35.175Z,81.54
2018-12-12T20:21:07.207Z,81.25
2018-12-12T20:23:38.827Z,81.25
2018-12-12T20:26:10.706Z,80.71
2018-12-12T20:28:42.456Z,80.77
2018-12-12T20:31:14.803Z,81.38
2018-12-12T20:33:46.902Z,81.21
2018-12-12T20:36:19.081Z,81.49
2018-12-12T20:38:52.292Z,81.22
2018-12-12T20:41:24.633Z,81.08
2018-12-12T20:43:56.788Z,81.16
2018-12-12T20:46:29.901Z,82.06
2018-12-12T20:49:01.712Z,81.82
2018-12-12T20:51:34.471Z,81.33
2018-12-12T20:54:07.171Z,80.84
2018-12-12T20:56:39.212Z,80.76
2018-12-12T20:59:10.977Z,81.20
2018-12-12T21:01:42.543Z,81.61
2018-12-12T21:04:15.444Z,80.69
2018-12-12T21:06:48.735Z,81.27
2018-12-12T21:09:24.034Z,80.38
2018-12-12T21:11:56.509Z,81.35
2018-12-12T21:14:28.976Z,81.45
2018-12-12T21:17:01.993Z,81.20
2018-12-12T21:19:34.990Z,81.68
2018-12-12T21:22:08.277Z,81.09
2018-12-12T21:24:40.206Z,81.57
2018-12-12T21:27:12.026Z,81.55
2018-12-12T21:29:43.495Z,81.45
2018-12-12T21:32:15.334Z,81.60
2018-12-12T21:34:47.883Z,80.70
2018-12-12T21:37:20.790Z,81.34
2018-12-12T21:39:52.723Z,81.53
2018-12-12T21:42:24.961Z,81.01
2018-12-12T21:44:57.300Z,82.00
2018-12-12T21:47:30.527Z,82.30
2018-12-12T21:50:02.273Z,81.36
2018-12-12T21:52:34.482Z,82.12
2018-12-12T21:55:06.154Z,81.54
2018-12-12T21:57:39.268Z,81.56
2018-12-12T22:00:11.860Z,80.70
2018-12-12T22:02:43.834Z,81.16
2018-12-12T22:05:16.544Z,81.58
2018-12-12T22:07:48.313Z,81.11
2018-12-12T22:10:20.357Z,81.04
2018-12-12T22:12:52.280Z,81.09
2018-12-12T22:15:24.634Z,81.11
2018-12-12T22:17:56.553Z,80.92
2018-12-12T22:20:28.374Z,80.68
2018-12-12T22:23:00.642Z,80.93
2018-12-12T22:25:32.772Z,81.09
2018-12-12T22:28:04.962Z,80.83
2018-12-12T22:30:36.833Z,81.04
2018-12-12T22:33:09.251Z,80.38
2018-12-12T22:35:41.166Z,80.51
2018-12-12T22:38:13.423Z,80.35
2018-12-12T22:40:45.336Z,81.15
2018-12-12T22:43:17.432Z,81.35
2018-12-12T22:45:49.786Z,81.31
2018-12-12T22:48:25.765Z,81.00
2018-12-12T22:50:57.428Z,81.76
2018-12-12T22:53:30.346Z,81.04
2018-12-12T22:56:02.871Z,80.99
2018-12-12T22:58:34.537Z,80.71
2018-12-12T23:01:13.785Z,80.62
2018-12-12T23:03:47.901Z,81.16
2018-12-12T23:06:20.818Z,82.16
2018-12-12T23:08:52.643Z,80.79
2018-12-12T23:11:25.434Z,81.38
2018-12-12T23:13:57.377Z,80.87
2018-12-12T23:16:29.656Z,81.76
2018-12-12T23:19:01.237Z,80.96
2018-12-12T23:21:33.269Z,81.32
2018-12-12T23:24:05.379Z,80.92
2018-12-12T23:26:38.092Z,80.91
2018-12-12T23:29:10.085Z,81.31
2018-12-12T23:31:41.633Z,81.35
2018-12-12T23:34:13.693Z,80.80
2018-12-12T23:36:45.412Z,80.85
2018-12-12T23:39:17.291Z,80.77
2018-12-12T23:41:49.006Z,80.61
2018-12-12T23:44:20.973Z,80.93
2018-12-12T23:46:53.166Z,81.05
2018-12-12T23:49:25.071Z,81.39
2018-12-12T23:51:56.953Z,81.08
2018-12-12T23:54:28.688Z,80.95
2018-12-12T23:57:00.368Z,80.39
2018-12-12T23:59:32.059Z,80.64
